Eagle Lake, Minnesota
Current Conditions -  °F | °C
As of 7:55 PM on Friday 24 Oct 2014 (Local Time) from KMKT Reporting Station
Clear Clear  
Wind Chill: 17°   Ceiling: Unl
Heat Index: 17°   Visibility: 10mi
Dew Point:   Wind: 3mph
Humidity: 55%   Direction: 240°WSW
Pressure: 29.89"   Gusts: NA
Location:  44.16°N, 93.88°W
Report Text: KMKT 250055Z AUTO 24003KT 10SM CLR 17/08 A2989 RMK AO1
Loading
Personal Weather Stations






























Interactive Weather Map
Tropical Storm Tracking
New forecast layout! Learn more

10-Day Weather Forecast

Advertisements
Track Severe Weather on mobile